createdAt,value
2017-10-14T00:00:08.693Z,38.43
2017-10-14T00:02:35.336Z,28.73
2017-10-14T00:05:02.745Z,45.33
2017-10-14T00:07:29.425Z,28.30
2017-10-14T00:09:56.539Z,33.77
2017-10-14T00:12:23.869Z,33.97
2017-10-14T00:14:51.203Z,27.30
2017-10-14T00:17:18.671Z,34.97
2017-10-14T00:19:47.531Z,30.03
2017-10-14T00:22:14.259Z,38.00
2017-10-14T00:24:40.949Z,47.40
2017-10-14T00:27:08.350Z,33.93
2017-10-14T00:29:35.155Z,45.27
2017-10-14T00:32:01.840Z,32.40
2017-10-14T00:34:28.609Z,40.73
2017-10-14T00:36:55.496Z,32.83
2017-10-14T00:39:22.707Z,35.67
2017-10-14T00:41:49.550Z,34.60
2017-10-14T00:44:16.238Z,34.80
2017-10-14T00:46:43.614Z,26.20
2017-10-14T00:49:11.255Z,29.97
2017-10-14T00:51:38.442Z,38.77
2017-10-14T00:54:04.998Z,30.00
2017-10-14T00:56:31.744Z,38.33
2017-10-14T00:58:58.581Z,28.63
2017-10-14T01:01:25.923Z,29.73
2017-10-14T01:03:53.453Z,36.27
2017-10-14T01:06:20.393Z,34.83
2017-10-14T01:08:47.960Z,35.00
2017-10-14T01:11:14.904Z,33.53
2017-10-14T01:13:41.753Z,40.17
2017-10-14T01:16:08.464Z,35.63
2017-10-14T01:18:35.224Z,38.63
2017-10-14T01:21:02.101Z,29.90
2017-10-14T01:23:28.916Z,30.50
2017-10-14T01:25:55.793Z,39.90
2017-10-14T01:28:22.695Z,32.30
2017-10-14T01:30:49.422Z,39.83
2017-10-14T01:33:16.490Z,32.83
2017-10-14T01:35:43.321Z,34.00
2017-10-14T01:38:10.286Z,34.90
2017-10-14T01:40:37.092Z,42.93
2017-10-14T01:43:03.912Z,27.10
2017-10-14T01:45:30.604Z,34.23
2017-10-14T01:47:57.907Z,32.60
2017-10-14T01:50:25.315Z,46.63
2017-10-14T01:52:52.116Z,36.10
2017-10-14T01:55:19.191Z,34.37
2017-10-14T01:57:46.182Z,37.83
2017-10-14T02:00:13.133Z,41.33
2017-10-14T02:02:39.858Z,41.00
2017-10-14T02:05:06.570Z,31.00
2017-10-14T02:07:34.116Z,32.27
2017-10-14T02:10:00.761Z,33.03
2017-10-14T02:12:27.586Z,36.50
2017-10-14T02:14:54.979Z,37.10
2017-10-14T02:17:22.092Z,32.90
2017-10-14T02:19:48.831Z,34.23
2017-10-14T02:22:17.130Z,40.83
2017-10-14T02:24:44.415Z,39.03
2017-10-14T02:27:11.107Z,46.83
2017-10-14T02:29:38.364Z,29.77
2017-10-14T02:32:05.314Z,34.23
2017-10-14T02:34:32.107Z,37.47
2017-10-14T02:36:58.845Z,35.40
2017-10-14T02:39:25.665Z,35.03
2017-10-14T02:41:52.337Z,43.50
2017-10-14T02:44:18.933Z,34.50
2017-10-14T02:46:46.131Z,44.10
2017-10-14T02:49:13.937Z,38.40
2017-10-14T02:51:40.681Z,40.60
2017-10-14T02:54:07.502Z,34.93
2017-10-14T02:56:35.077Z,47.03
2017-10-14T02:59:01.932Z,35.57
2017-10-14T03:01:29.064Z,39.50
2017-10-14T03:03:56.207Z,35.83
2017-10-14T03:06:23.354Z,41.50
2017-10-14T03:08:50.396Z,40.60
2017-10-14T03:11:17.239Z,38.67
2017-10-14T03:13:44.080Z,37.10
2017-10-14T03:16:10.776Z,31.00
2017-10-14T03:18:38.279Z,43.80
2017-10-14T03:21:05.992Z,41.67
2017-10-14T03:23:33.011Z,42.77
2017-10-14T03:25:59.954Z,40.73
2017-10-14T03:28:26.924Z,41.90
2017-10-14T03:30:54.049Z,40.53
2017-10-14T03:33:20.797Z,42.80
2017-10-14T03:35:47.710Z,51.60
2017-10-14T03:38:14.554Z,41.70
2017-10-14T03:40:41.482Z,43.37
2017-10-14T03:43:08.344Z,48.17
2017-10-14T03:45:41.107Z,48.43
2017-10-14T03:48:08.017Z,45.27
2017-10-14T03:50:35.020Z,42.63
2017-10-14T03:53:01.842Z,38.67
2017-10-14T03:55:28.912Z,45.40
2017-10-14T03:57:55.689Z,43.30
2017-10-14T04:00:23.213Z,45.63
2017-10-14T04:02:50.081Z,55.13
2017-10-14T04:05:17.796Z,45.83
2017-10-14T04:07:44.531Z,55.37
2017-10-14T04:10:11.300Z,47.17
2017-10-14T04:12:38.152Z,46.43
2017-10-14T04:15:04.995Z,51.70
2017-10-14T04:17:31.736Z,47.10
2017-10-14T04:19:58.502Z,45.83
2017-10-14T04:22:25.318Z,50.40
2017-10-14T04:24:52.907Z,41.60
2017-10-14T04:27:19.633Z,51.43
2017-10-14T04:29:46.454Z,46.80
2017-10-14T04:32:13.119Z,56.13
2017-10-14T04:34:39.902Z,41.57
2017-10-14T04:37:06.529Z,46.93
2017-10-14T04:39:36.580Z,53.57
2017-10-14T04:42:03.559Z,49.00
2017-10-14T04:44:30.287Z,48.90
2017-10-14T04:46:56.988Z,52.63
2017-10-14T04:49:23.727Z,42.10
2017-10-14T04:51:50.982Z,47.50
2017-10-14T04:54:18.061Z,47.70
2017-10-14T04:56:44.939Z,44.83
2017-10-14T04:59:11.858Z,46.47
2017-10-14T05:01:39.266Z,50.07
2017-10-14T05:04:06.118Z,49.03
2017-10-14T05:06:32.857Z,47.10
2017-10-14T05:08:59.647Z,44.93
2017-10-14T05:11:26.479Z,48.57
2017-10-14T05:13:53.567Z,47.87
2017-10-14T05:16:20.352Z,49.40
2017-10-14T05:18:46.952Z,45.73
2017-10-14T05:21:13.810Z,46.90
2017-10-14T05:23:40.694Z,46.03
2017-10-14T05:26:07.555Z,45.80
2017-10-14T05:28:34.271Z,45.50
2017-10-14T05:31:00.949Z,47.90
2017-10-14T05:33:27.543Z,45.47
2017-10-14T05:35:54.287Z,44.30
2017-10-14T05:38:20.847Z,45.13
2017-10-14T05:40:47.497Z,49.73
2017-10-14T05:43:14.134Z,41.20
2017-10-14T05:45:40.859Z,42.47
2017-10-14T05:48:07.512Z,47.87
2017-10-14T05:50:34.274Z,39.47
2017-10-14T05:53:00.938Z,40.97
2017-10-14T05:55:27.765Z,39.20
2017-10-14T05:57:54.326Z,41.10
2017-10-14T06:00:21.131Z,43.93
2017-10-14T06:02:47.870Z,47.60
2017-10-14T06:05:14.757Z,39.60
2017-10-14T06:07:41.539Z,40.93
2017-10-14T06:10:08.339Z,48.17
2017-10-14T06:12:35.361Z,42.27
2017-10-14T06:15:02.017Z,36.33
2017-10-14T06:17:28.795Z,44.53
2017-10-14T06:19:55.544Z,44.83
2017-10-14T06:22:22.262Z,41.70
2017-10-14T06:24:49.087Z,45.00
2017-10-14T06:27:16.181Z,37.67
2017-10-14T06:29:42.874Z,38.70
2017-10-14T06:32:09.446Z,42.37
2017-10-14T06:34:36.250Z,39.83
2017-10-14T06:37:03.921Z,39.73
2017-10-14T06:39:32.141Z,38.73
2017-10-14T06:41:59.273Z,37.63
2017-10-14T06:44:25.916Z,41.53
2017-10-14T06:46:52.701Z,41.17
2017-10-14T06:49:19.553Z,32.67
2017-10-14T06:51:46.445Z,41.50
2017-10-14T06:54:13.156Z,44.77
2017-10-14T06:56:40.707Z,39.37
2017-10-14T06:59:07.487Z,43.60
2017-10-14T07:01:34.656Z,39.80
2017-10-14T07:04:01.517Z,44.70
2017-10-14T07:06:28.454Z,50.43
2017-10-14T07:08:55.735Z,35.03
2017-10-14T07:11:22.424Z,41.10
2017-10-14T07:13:49.324Z,36.73
2017-10-14T07:16:16.090Z,39.83
2017-10-14T07:18:42.903Z,34.60
2017-10-14T07:21:09.562Z,40.03
2017-10-14T07:23:36.458Z,36.67
2017-10-14T07:26:03.651Z,46.30
2017-10-14T07:28:31.299Z,39.30
2017-10-14T07:30:58.103Z,33.70
2017-10-14T07:33:24.748Z,38.60
2017-10-14T07:35:51.513Z,44.87
2017-10-14T07:38:18.175Z,42.00
2017-10-14T07:40:44.919Z,40.67
2017-10-14T07:43:11.550Z,34.60
2017-10-14T07:45:38.310Z,46.10
2017-10-14T07:48:05.262Z,39.30
2017-10-14T07:50:31.937Z,41.93
2017-10-14T07:52:58.808Z,40.10
2017-10-14T07:55:26.693Z,30.53
2017-10-14T07:57:54.102Z,40.67
2017-10-14T08:00:20.994Z,41.87
2017-10-14T08:02:48.609Z,52.90
2017-10-14T08:05:16.112Z,39.73
2017-10-14T08:07:43.125Z,41.43
2017-10-14T08:10:10.387Z,39.80
2017-10-14T08:12:40.091Z,35.43
2017-10-14T08:15:07.999Z,43.20
2017-10-14T08:17:34.744Z,36.23
2017-10-14T08:20:02.620Z,41.40
2017-10-14T08:22:29.339Z,31.03
2017-10-14T08:24:55.925Z,54.33
2017-10-14T08:27:22.705Z,45.93
2017-10-14T08:29:49.519Z,37.50
2017-10-14T08:32:16.291Z,40.60
2017-10-14T08:34:43.052Z,37.80
2017-10-14T08:37:09.790Z,36.17
2017-10-14T08:39:37.659Z,35.93
2017-10-14T08:42:04.547Z,41.30
2017-10-14T08:44:31.256Z,38.43
2017-10-14T08:46:58.071Z,56.67
2017-10-14T08:49:26.262Z,41.70
2017-10-14T08:51:58.470Z,38.67
2017-10-14T08:54:26.988Z,41.10
2017-10-14T08:56:55.391Z,35.90
2017-10-14T08:59:27.288Z,35.40
2017-10-14T09:01:56.579Z,37.33
2017-10-14T09:04:23.618Z,40.07
2017-10-14T09:06:54.014Z,35.60
2017-10-14T09:09:23.311Z,31.20
2017-10-14T09:11:51.174Z,38.57
2017-10-14T09:14:19.137Z,38.83
2017-10-14T09:16:47.179Z,33.53
2017-10-14T09:19:14.069Z,32.77
2017-10-14T09:21:41.069Z,31.20
2017-10-14T09:24:07.852Z,33.27
2017-10-14T09:26:34.872Z,28.73
2017-10-14T09:29:02.344Z,24.40
2017-10-14T09:31:29.794Z,27.03
2017-10-14T09:33:57.705Z,27.70
2017-10-14T09:36:25.953Z,22.77
2017-10-14T09:38:53.640Z,37.50
2017-10-14T09:41:20.344Z,28.43
2017-10-14T09:43:47.158Z,22.00
2017-10-14T09:46:14.005Z,21.40
2017-10-14T09:48:40.947Z,19.57
2017-10-14T09:51:07.788Z,22.70
2017-10-14T09:53:38.417Z,28.63
2017-10-14T09:56:09.309Z,17.70
2017-10-14T09:58:39.598Z,26.60
2017-10-14T10:01:09.121Z,22.53
2017-10-14T10:03:35.761Z,25.83
2017-10-14T10:06:02.464Z,26.30
2017-10-14T10:08:29.703Z,27.17
2017-10-14T10:10:56.349Z,21.50
2017-10-14T10:13:23.196Z,30.80
2017-10-14T10:15:52.373Z,25.03
2017-10-14T10:18:19.154Z,32.23
2017-10-14T10:20:45.832Z,28.73
2017-10-14T10:23:12.845Z,33.60
2017-10-14T10:25:39.540Z,19.93
2017-10-14T10:28:06.426Z,24.00
2017-10-14T10:30:33.440Z,22.53
2017-10-14T10:33:00.482Z,29.00
2017-10-14T10:35:28.243Z,19.83
2017-10-14T10:37:55.047Z,19.17
2017-10-14T10:40:21.848Z,24.67
2017-10-14T10:42:48.607Z,29.60
2017-10-14T10:45:15.696Z,18.73
2017-10-14T10:47:42.671Z,22.67
2017-10-14T10:50:09.689Z,21.73
2017-10-14T10:52:36.376Z,21.17
2017-10-14T10:55:03.207Z,22.90
2017-10-14T10:57:29.938Z,21.67
2017-10-14T10:59:57.069Z,16.63
2017-10-14T11:02:23.826Z,22.17
2017-10-14T11:04:50.728Z,19.70
2017-10-14T11:07:17.653Z,22.97
2017-10-14T11:09:44.312Z,21.33
2017-10-14T11:12:12.090Z,28.17
2017-10-14T11:14:38.990Z,14.50
2017-10-14T11:17:06.029Z,20.73
2017-10-14T11:19:32.842Z,19.10
2017-10-14T11:21:59.812Z,16.93
2017-10-14T11:24:26.448Z,11.73
2017-10-14T11:26:53.108Z,16.90
2017-10-14T11:29:20.341Z,15.60
2017-10-14T11:31:47.237Z,17.03
2017-10-14T11:34:14.255Z,11.20
2017-10-14T11:36:41.155Z,17.67
2017-10-14T11:39:07.982Z,14.90
2017-10-14T11:41:34.732Z,11.87
2017-10-14T11:44:02.152Z,12.43
2017-10-14T11:46:28.878Z,14.70
2017-10-14T11:48:55.548Z,17.10
2017-10-14T11:51:22.409Z,13.90
2017-10-14T11:53:49.070Z,15.97
2017-10-14T11:56:16.223Z,14.60
2017-10-14T11:58:42.938Z,14.13
2017-10-14T12:01:09.857Z,9.60
2017-10-14T12:03:37.111Z,12.57
2017-10-14T12:06:04.661Z,11.23
2017-10-14T12:08:31.667Z,9.00
2017-10-14T12:10:58.337Z,15.00
2017-10-14T12:13:25.178Z,9.80
2017-10-14T12:15:52.048Z,11.50
2017-10-14T12:18:18.963Z,10.50
2017-10-14T12:20:45.702Z,11.63
2017-10-14T12:23:12.511Z,19.80
2017-10-14T12:25:39.216Z,12.57
2017-10-14T12:28:06.571Z,13.53
2017-10-14T12:30:33.316Z,11.07
2017-10-14T12:32:59.992Z,13.13
2017-10-14T12:35:26.829Z,13.10
2017-10-14T12:38:03.391Z,9.50
2017-10-14T12:40:32.293Z,11.97
2017-10-14T12:42:59.206Z,13.37
2017-10-14T12:45:25.964Z,15.00
2017-10-14T12:47:53.031Z,11.33
2017-10-14T12:50:19.832Z,10.67
2017-10-14T12:52:46.472Z,13.50
2017-10-14T12:55:13.225Z,12.93
2017-10-14T12:57:39.819Z,16.23
2017-10-14T13:00:06.720Z,13.10
2017-10-14T13:02:33.947Z,12.03
2017-10-14T13:05:00.690Z,11.37
2017-10-14T13:07:27.347Z,9.53
2017-10-14T13:09:54.111Z,21.53
2017-10-14T13:12:20.671Z,11.57
2017-10-14T13:14:47.337Z,18.00
2017-10-14T13:17:14.142Z,11.43
2017-10-14T13:19:41.025Z,8.73
2017-10-14T13:22:08.721Z,14.57
2017-10-14T13:24:35.351Z,13.70
2017-10-14T13:27:02.387Z,16.20
2017-10-14T13:29:29.847Z,13.47
2017-10-14T13:31:56.776Z,12.83
2017-10-14T13:34:24.511Z,16.33
2017-10-14T13:36:52.101Z,14.13
2017-10-14T13:39:18.954Z,17.20
2017-10-14T13:41:45.989Z,19.30
2017-10-14T13:44:12.648Z,20.23
2017-10-14T13:46:41.235Z,17.43
2017-10-14T13:49:09.182Z,15.87
2017-10-14T13:51:36.921Z,15.50
2017-10-14T13:54:06.751Z,17.30
2017-10-14T13:56:35.031Z,13.83
2017-10-14T13:59:02.087Z,22.87
2017-10-14T14:01:29.358Z,18.80
2017-10-14T14:03:56.212Z,17.63
2017-10-14T14:06:23.018Z,18.43
2017-10-14T14:08:50.323Z,16.47
2017-10-14T14:11:17.243Z,16.93
2017-10-14T14:13:43.940Z,17.97
2017-10-14T14:16:10.803Z,15.70
2017-10-14T14:18:37.888Z,14.30
2017-10-14T14:21:04.861Z,22.03
2017-10-14T14:23:31.722Z,16.40
2017-10-14T14:25:58.371Z,17.70
2017-10-14T14:28:25.116Z,14.90
2017-10-14T14:30:52.240Z,14.10
2017-10-14T14:33:18.973Z,14.20
2017-10-14T14:35:45.853Z,12.17
2017-10-14T14:38:13.340Z,15.83
2017-10-14T14:40:40.142Z,16.73
2017-10-14T14:43:07.193Z,16.33
2017-10-14T14:45:34.564Z,17.20
2017-10-14T14:48:01.395Z,21.00
2017-10-14T14:50:28.339Z,18.20
2017-10-14T14:52:55.557Z,18.67
2017-10-14T14:55:26.077Z,19.07
2017-10-14T14:57:53.887Z,17.53
2017-10-14T15:00:20.783Z,17.10
2017-10-14T15:02:47.436Z,14.50
2017-10-14T15:05:14.340Z,15.60
2017-10-14T15:07:41.229Z,17.97
2017-10-14T15:10:08.578Z,17.10
2017-10-14T15:12:35.438Z,15.07
2017-10-14T15:15:02.575Z,18.17
2017-10-14T15:17:29.888Z,21.23
2017-10-14T15:19:56.756Z,21.53
2017-10-14T15:22:23.623Z,21.00
2017-10-14T15:24:50.285Z,23.30
2017-10-14T15:27:17.006Z,26.00
2017-10-14T15:29:44.054Z,23.00
2017-10-14T15:32:11.119Z,25.03
2017-10-14T15:34:38.264Z,26.33
2017-10-14T15:37:05.122Z,32.10
2017-10-14T15:39:31.865Z,26.47
2017-10-14T15:41:58.605Z,29.27
2017-10-14T15:44:25.605Z,34.67
2017-10-14T15:46:52.547Z,28.33
2017-10-14T15:49:20.100Z,30.43
2017-10-14T15:51:47.212Z,28.90
2017-10-14T15:54:14.739Z,26.20
2017-10-14T15:56:41.653Z,27.37
2017-10-14T15:59:08.465Z,25.73
2017-10-14T16:01:35.128Z,27.37
2017-10-14T16:04:01.868Z,30.93
2017-10-14T16:06:29.163Z,28.10
2017-10-14T16:08:55.916Z,28.20
2017-10-14T16:11:22.970Z,28.57
2017-10-14T16:13:50.108Z,24.50
2017-10-14T16:16:17.038Z,36.57
2017-10-14T16:18:43.731Z,27.20
2017-10-14T16:21:10.569Z,32.13
2017-10-14T16:23:37.415Z,38.43
2017-10-14T16:26:04.065Z,28.57
2017-10-14T16:28:30.975Z,30.07
2017-10-14T16:30:57.733Z,31.03
2017-10-14T16:33:24.369Z,36.60
2017-10-14T16:35:52.075Z,30.53
2017-10-14T16:38:18.684Z,34.30
2017-10-14T16:40:45.468Z,26.50
2017-10-14T16:43:12.334Z,27.30
2017-10-14T16:45:38.970Z,38.40
2017-10-14T16:48:05.732Z,29.77
2017-10-14T16:50:32.545Z,32.50
2017-10-14T16:52:59.922Z,35.40
2017-10-14T16:55:26.741Z,31.30
2017-10-14T16:57:53.409Z,36.20
2017-10-14T17:00:20.253Z,32.07
2017-10-14T17:02:47.110Z,32.30
2017-10-14T17:05:13.887Z,27.47
2017-10-14T17:07:40.836Z,22.47
2017-10-14T17:10:07.516Z,28.50
2017-10-14T17:12:37.426Z,30.10
2017-10-14T17:17:37.265Z,28.37
2017-10-14T17:20:04.855Z,27.27
2017-10-14T17:22:31.692Z,26.97
2017-10-14T17:24:58.439Z,24.63
2017-10-14T17:27:25.231Z,26.17
2017-10-14T17:29:51.980Z,23.37
2017-10-14T17:32:18.685Z,24.07
2017-10-14T17:34:45.595Z,21.00
2017-10-14T17:37:12.381Z,21.80
2017-10-14T17:39:39.181Z,18.93
2017-10-14T17:42:06.793Z,21.17
2017-10-14T17:44:33.653Z,22.90
2017-10-14T17:47:00.607Z,26.60
2017-10-14T17:49:27.439Z,25.80
2017-10-14T17:51:54.354Z,28.43
2017-10-14T17:54:21.133Z,23.83
2017-10-14T17:56:48.096Z,28.30
2017-10-14T17:59:14.805Z,33.07
2017-10-14T18:01:41.856Z,29.20
2017-10-14T18:04:08.689Z,35.30
2017-10-14T18:06:35.467Z,31.00
2017-10-14T18:09:02.584Z,30.03
2017-10-14T18:11:29.223Z,33.97
2017-10-14T18:13:55.956Z,36.70
2017-10-14T18:16:23.394Z,35.73
2017-10-14T18:18:50.233Z,33.93
2017-10-14T18:21:17.763Z,35.13
2017-10-14T18:23:44.493Z,39.00
2017-10-14T18:26:11.200Z,42.30
2017-10-14T18:28:38.048Z,30.30
2017-10-14T18:31:04.774Z,36.27
2017-10-14T18:33:31.932Z,30.23
2017-10-14T18:35:58.691Z,31.87
2017-10-14T18:38:25.636Z,25.00
2017-10-14T18:40:52.426Z,28.63
2017-10-14T18:43:19.356Z,31.20
2017-10-14T18:45:46.253Z,25.47
2017-10-14T18:48:13.200Z,28.07
2017-10-14T18:50:40.310Z,27.23
2017-10-14T18:53:07.185Z,26.07
2017-10-14T18:55:34.265Z,32.47
2017-10-14T18:58:02.117Z,26.30
2017-10-14T19:00:29.129Z,29.17
2017-10-14T19:02:56.451Z,30.23
2017-10-14T19:05:23.399Z,31.20
2017-10-14T19:07:50.407Z,23.90
2017-10-14T19:10:17.623Z,29.10
2017-10-14T19:12:44.225Z,30.17
2017-10-14T19:15:11.007Z,30.70
2017-10-14T19:17:37.738Z,30.57
2017-10-14T19:20:04.536Z,30.10
2017-10-14T19:22:31.777Z,27.47
2017-10-14T19:24:58.554Z,35.30
2017-10-14T19:27:25.187Z,37.33
2017-10-14T19:29:52.572Z,33.30
2017-10-14T19:32:19.517Z,34.57
2017-10-14T19:34:46.268Z,36.80
2017-10-14T19:37:13.407Z,33.53
2017-10-14T19:39:40.993Z,32.97
2017-10-14T19:42:07.903Z,44.97
2017-10-14T19:44:34.648Z,35.70
2017-10-14T19:47:01.438Z,38.83
2017-10-14T19:49:28.991Z,41.83
2017-10-14T19:51:55.957Z,35.60
2017-10-14T19:54:22.610Z,34.37
2017-10-14T19:56:49.675Z,38.20
2017-10-14T19:59:16.742Z,37.93
2017-10-14T20:01:43.623Z,38.70
2017-10-14T20:04:10.382Z,26.93
2017-10-14T20:06:37.261Z,39.33
2017-10-14T20:09:04.056Z,39.37
2017-10-14T20:11:30.873Z,34.80
2017-10-14T20:13:57.699Z,40.00
2017-10-14T20:16:24.597Z,34.00
2017-10-14T20:18:51.877Z,28.80
2017-10-14T20:21:18.745Z,31.93
2017-10-14T20:23:45.792Z,37.87
2017-10-14T20:26:12.875Z,41.90
2017-10-14T20:28:39.910Z,32.53
2017-10-14T20:31:06.654Z,35.77
2017-10-14T20:33:33.610Z,36.27
2017-10-14T20:36:00.864Z,30.20
2017-10-14T20:38:28.631Z,30.00
2017-10-14T20:40:55.597Z,34.70
2017-10-14T20:43:22.316Z,46.77
2017-10-14T20:45:49.100Z,37.40
2017-10-14T20:48:15.999Z,32.67
2017-10-14T20:50:43.349Z,34.67
2017-10-14T20:53:10.158Z,35.07
2017-10-14T20:55:37.093Z,27.63
2017-10-14T20:58:03.690Z,33.83
2017-10-14T21:00:30.560Z,33.50
2017-10-14T21:03:04.286Z,29.00
2017-10-14T21:05:31.252Z,28.90
2017-10-14T21:07:58.128Z,30.30
2017-10-14T21:10:25.558Z,26.50
2017-10-14T21:12:52.760Z,30.37
2017-10-14T21:15:19.481Z,31.77
2017-10-14T21:17:46.318Z,33.97
2017-10-14T21:20:13.152Z,30.17
2017-10-14T21:22:39.914Z,32.30
2017-10-14T21:25:06.780Z,30.20
2017-10-14T21:27:33.561Z,40.13
2017-10-14T21:30:00.345Z,38.60
2017-10-14T21:32:27.633Z,31.40
2017-10-14T21:34:55.480Z,31.93
2017-10-14T21:37:22.247Z,35.70
2017-10-14T21:39:49.004Z,27.07
2017-10-14T21:42:15.745Z,32.33
2017-10-14T21:44:42.707Z,25.20
2017-10-14T21:47:09.941Z,33.10
2017-10-14T21:49:36.627Z,27.57
2017-10-14T21:52:03.746Z,31.97
2017-10-14T21:54:30.671Z,29.40
2017-10-14T21:56:57.499Z,27.70
2017-10-14T21:59:24.220Z,26.03
2017-10-14T22:01:51.232Z,30.70
2017-10-14T22:04:17.875Z,31.03
2017-10-14T22:06:44.639Z,28.47
2017-10-14T22:09:11.394Z,40.60
2017-10-14T22:11:38.302Z,31.93
2017-10-14T22:14:05.187Z,28.70
2017-10-14T22:16:32.176Z,28.30
2017-10-14T22:18:59.272Z,28.83
2017-10-14T22:21:26.084Z,30.03
2017-10-14T22:23:53.416Z,30.83
2017-10-14T22:26:20.217Z,27.57
2017-10-14T22:28:47.025Z,28.73
2017-10-14T22:31:13.877Z,26.40
2017-10-14T22:33:41.461Z,25.43
2017-10-14T22:36:08.772Z,28.23
2017-10-14T22:38:35.486Z,27.13
2017-10-14T22:41:02.291Z,27.43
2017-10-14T22:43:29.004Z,24.33
2017-10-14T22:45:55.846Z,30.57
2017-10-14T22:48:23.284Z,21.57
2017-10-14T22:50:50.866Z,24.13
2017-10-14T22:53:17.628Z,25.70
2017-10-14T22:55:44.504Z,30.27
2017-10-14T22:58:11.169Z,30.13
2017-10-14T23:00:37.966Z,19.40
2017-10-14T23:03:04.806Z,29.17
2017-10-14T23:05:31.632Z,24.90
2017-10-14T23:07:58.326Z,26.93
2017-10-14T23:10:24.877Z,21.80
2017-10-14T23:12:51.543Z,20.80
2017-10-14T23:15:18.313Z,27.23
2017-10-14T23:17:45.070Z,21.00
2017-10-14T23:20:11.926Z,26.50
2017-10-14T23:22:38.753Z,29.53
2017-10-14T23:25:05.625Z,25.20
2017-10-14T23:27:32.253Z,20.30
2017-10-14T23:29:59.148Z,23.23
2017-10-14T23:32:26.052Z,28.70
2017-10-14T23:34:53.563Z,30.40
2017-10-14T23:37:20.485Z,27.33
2017-10-14T23:39:47.391Z,23.17
2017-10-14T23:42:14.097Z,26.23
2017-10-14T23:44:41.587Z,26.47
2017-10-14T23:47:08.366Z,34.67
2017-10-14T23:49:35.372Z,26.13
2017-10-14T23:52:02.358Z,21.67
2017-10-14T23:54:29.148Z,18.83
2017-10-14T23:56:55.933Z,27.40
2017-10-14T23:59:22.868Z,29.97
